Time;durP1;ratioP1;P1;durP2;ratioP2;P2;SDS_P1;SDS_P2;PMS_P1;PMS_P2;Temp;Humidity;BMP_temperature;BMP_pressure;BME280_temperature;BME280_humidity;BME280_pressure;Samples;Min_cycle;Max_cycle;Signal;HPM_P1;HPM_P2
2022/07/12 00:02:37;;;;;;;2.15;1.25;;;;;;;;;;5034196;28;20045;-81
2022/07/12 00:05:23;;;;;;;1.90;0.75;;;;;;;;;;5021578;28;20414;-82
2022/07/12 00:08:09;;;;;;;2.72;1.00;;;;;;;;;;5034951;28;20099;-81
2022/07/12 00:10:54;;;;;;;1.95;1.02;;;;;;;;;;5035433;28;20037;-82
2022/07/12 00:13:40;;;;;;;1.63;0.80;;;;;;;;;;5021113;28;20045;-81
2022/07/12 00:16:26;;;;;;;5.10;1.08;;;;;;;;;;5033777;28;20048;-81
2022/07/12 00:19:12;;;;;;;2.58;0.77;;;;;;;;;;5020899;28;20045;-81
2022/07/12 00:21:58;;;;;;;1.85;0.88;;;;;;;;;;5033440;28;20048;-81
2022/07/12 00:24:43;;;;;;;1.80;0.93;;;;;;;;;;5033848;28;20034;-81
2022/07/12 00:27:29;;;;;;;3.28;0.80;;;;;;;;;;5033302;28;20034;-81
2022/07/12 00:30:15;;;;;;;1.90;0.85;;;;;;;;;;5034115;28;20508;-81
2022/07/12 00:33:00;;;;;;;1.48;0.90;;;;;;;;;;5034393;28;20033;-81
2022/07/12 00:35:46;;;;;;;1.58;1.00;;;;;;;;;;5033526;28;20041;-81
2022/07/12 00:38:32;;;;;;;2.15;1.00;;;;;;;;;;5020107;28;20036;-81
2022/07/12 00:41:18;;;;;;;1.88;1.05;;;;;;;;;;5034153;28;20095;-81
2022/07/12 00:44:04;;;;;;;2.65;0.90;;;;;;;;;;5019667;28;20065;-81
2022/07/12 00:46:50;;;;;;;2.20;1.33;;;;;;;;;;5020016;28;20052;-81
2022/07/12 00:49:35;;;;;;;2.72;0.75;;;;;;;;;;5019977;28;20049;-81
2022/07/12 00:52:21;;;;;;;2.20;1.10;;;;;;;;;;5034049;28;20131;-82
2022/07/12 00:55:07;;;;;;;1.70;0.95;;;;;;;;;;5034128;28;20363;-81
2022/07/12 00:57:53;;;;;;;1.65;0.90;;;;;;;;;;5019416;28;20084;-81
2022/07/12 01:00:39;;;;;;;2.95;1.10;;;;;;;;;;5019440;28;20075;-81
2022/07/12 01:03:25;;;;;;;1.70;0.93;;;;;;;;;;5019021;28;20037;-81
2022/07/12 01:06:11;;;;;;;2.17;1.08;;;;;;;;;;5018265;28;20072;-81
2022/07/12 01:08:58;;;;;;;1.15;0.82;;;;;;;;;;5019401;28;20050;-82
2022/07/12 01:11:44;;;;;;;1.90;1.13;;;;;;;;;;5020431;28;20069;-81
2022/07/12 01:14:30;;;;;;;2.50;1.02;;;;;;;;;;5020603;28;20488;-81
2022/07/12 01:17:21;;;;;;;1.42;0.90;;;;;;;;;;5033802;28;20037;-81
2022/07/12 01:20:07;;;;;;;2.38;1.10;;;;;;;;;;5018081;28;20488;-81
2022/07/12 01:22:54;;;;;;;1.45;0.93;;;;;;;;;;5020360;28;20073;-82
2022/07/12 01:25:39;;;;;;;2.03;1.20;;;;;;;;;;5019196;28;20415;-81
2022/07/12 01:28:25;;;;;;;1.58;0.85;;;;;;;;;;5020673;28;20125;-81
2022/07/12 01:31:11;;;;;;;2.58;1.88;;;;;;;;;;5018991;28;20443;-81
2022/07/12 01:33:57;;;;;;;1.90;0.98;;;;;;;;;;5032069;28;20507;-81
2022/07/12 01:36:43;;;;;;;1.88;0.80;;;;;;;;;;5019309;28;20056;-81
2022/07/12 01:39:28;;;;;;;1.85;1.02;;;;;;;;;;5018889;28;20037;-82
2022/07/12 01:42:14;;;;;;;2.75;1.00;;;;;;;;;;5033076;28;20099;-81
2022/07/12 01:45:00;;;;;;;2.60;1.13;;;;;;;;;;5032832;28;20034;-81
2022/07/12 01:47:46;;;;;;;2.22;1.30;;;;;;;;;;5033210;28;20103;-81
2022/07/12 01:50:32;;;;;;;1.73;1.00;;;;;;;;;;5032169;28;20041;-81
2022/07/12 01:53:18;;;;;;;1.55;0.95;;;;;;;;;;5019387;28;20046;-81
2022/07/12 01:56:03;;;;;;;2.92;1.10;;;;;;;;;;5032863;28;20033;-81
2022/07/12 01:58:49;;;;;;;2.20;1.33;;;;;;;;;;5017238;28;20470;-81
2022/07/12 02:01:35;;;;;;;2.90;1.27;;;;;;;;;;5031914;28;20119;-81
2022/07/12 02:04:21;;;;;;;1.77;1.02;;;;;;;;;;5032055;28;20047;-81
2022/07/12 02:07:07;;;;;;;2.28;1.40;;;;;;;;;;5017942;28;20045;-81
2022/07/12 02:09:53;;;;;;;1.67;1.25;;;;;;;;;;5018227;28;20055;-81
2022/07/12 02:12:38;;;;;;;1.45;0.85;;;;;;;;;;5018463;28;20066;-81
2022/07/12 02:15:24;;;;;;;2.05;1.10;;;;;;;;;;5031887;28;20049;-81
2022/07/12 02:18:10;;;;;;;2.50;1.40;;;;;;;;;;5018765;28;20048;-81
2022/07/12 02:20:56;;;;;;;2.35;1.30;;;;;;;;;;5032253;28;20045;-82
2022/07/12 02:23:41;;;;;;;2.42;1.25;;;;;;;;;;5018656;28;20083;-81
2022/07/12 02:26:27;;;;;;;1.85;1.27;;;;;;;;;;5018314;28;20064;-81
2022/07/12 02:29:13;;;;;;;2.08;1.30;;;;;;;;;;5032254;28;20100;-82
2022/07/12 02:31:59;;;;;;;2.22;1.50;;;;;;;;;;5018170;28;20033;-81
2022/07/12 02:34:45;;;;;;;2.25;1.05;;;;;;;;;;5016819;28;20065;-82
2022/07/12 02:37:31;;;;;;;2.35;1.40;;;;;;;;;;5032087;28;20039;-81
2022/07/12 02:43:21;;;;;;;2.70;1.35;;;;;;;;;;5031734;28;20083;-82
2022/07/12 02:46:08;;;;;;;2.80;1.50;;;;;;;;;;5030081;28;20120;-81
2022/07/12 02:48:54;;;;;;;2.05;1.10;;;;;;;;;;5016418;28;20535;-82
2022/07/12 02:51:40;;;;;;;2.42;1.40;;;;;;;;;;5017983;28;20037;-82
2022/07/12 02:54:26;;;;;;;1.80;1.23;;;;;;;;;;5031083;28;20499;-82
2022/07/12 02:57:11;;;;;;;2.50;1.60;;;;;;;;;;5031049;28;20044;-81
2022/07/12 02:59:57;;;;;;;2.53;1.33;;;;;;;;;;5031120;28;20116;-81
2022/07/12 03:02:43;;;;;;;2.20;1.10;;;;;;;;;;5031061;28;20045;-81
2022/07/12 03:05:28;;;;;;;1.88;1.20;;;;;;;;;;5017849;28;20033;-82
2022/07/12 03:08:14;;;;;;;1.95;1.13;;;;;;;;;;5031092;28;20045;-81
2022/07/12 03:11:00;;;;;;;1.92;1.17;;;;;;;;;;5032197;28;20038;-81
2022/07/12 03:13:46;;;;;;;1.73;0.90;;;;;;;;;;5031169;28;20420;-81
2022/07/12 03:16:32;;;;;;;2.10;1.48;;;;;;;;;;5030525;28;20511;-81
2022/07/12 03:19:17;;;;;;;1.83;1.17;;;;;;;;;;5016313;28;20476;-81
2022/07/12 03:22:03;;;;;;;4.50;1.67;;;;;;;;;;5031828;28;20534;-81
2022/07/12 03:24:49;;;;;;;3.35;1.92;;;;;;;;;;5031481;28;20033;-81
2022/07/12 03:27:35;;;;;;;2.45;1.60;;;;;;;;;;5030923;28;20038;-81
2022/07/12 03:30:21;;;;;;;2.65;1.45;;;;;;;;;;5030941;28;20033;-81
2022/07/12 03:33:07;;;;;;;2.05;1.25;;;;;;;;;;5031161;28;20034;-81
2022/07/12 03:35:53;;;;;;;2.42;1.40;;;;;;;;;;5030343;28;20045;-81
2022/07/12 03:38:39;;;;;;;2.17;1.23;;;;;;;;;;5016952;28;20411;-81
2022/07/12 03:41:25;;;;;;;3.08;1.95;;;;;;;;;;5017141;28;20462;-82
2022/07/12 03:44:11;;;;;;;2.40;1.60;;;;;;;;;;5016795;28;20393;-82
2022/07/12 03:46:58;;;;;;;2.85;1.27;;;;;;;;;;5017396;28;20107;-81
2022/07/12 03:49:43;;;;;;;2.47;1.38;;;;;;;;;;5016910;28;20050;-81
2022/07/12 03:52:29;;;;;;;2.88;1.80;;;;;;;;;;5017380;28;20045;-81
2022/07/12 03:55:15;;;;;;;4.32;1.60;;;;;;;;;;5030277;28;20034;-82
2022/07/12 03:58:00;;;;;;;2.28;1.35;;;;;;;;;;5030635;28;20124;-81
2022/07/12 04:00:46;;;;;;;2.53;1.77;;;;;;;;;;5029719;28;20037;-81
2022/07/12 04:03:32;;;;;;;3.35;1.75;;;;;;;;;;5030294;28;20038;-81
2022/07/12 04:06:18;;;;;;;2.38;1.35;;;;;;;;;;5030183;28;20034;-81
2022/07/12 04:09:04;;;;;;;2.35;1.48;;;;;;;;;;5029611;28;20060;-81
2022/07/12 04:11:49;;;;;;;2.20;1.10;;;;;;;;;;5029986;28;20110;-82
2022/07/12 04:14:35;;;;;;;2.42;1.23;;;;;;;;;;5031053;28;20041;-82
2022/07/12 04:17:21;;;;;;;2.80;1.48;;;;;;;;;;5030065;28;20539;-82
2022/07/12 04:20:08;;;;;;;3.20;2.42;;;;;;;;;;5029859;28;20045;-81
2022/07/12 04:22:53;;;;;;;2.10;1.52;;;;;;;;;;5015275;28;20041;-81
2022/07/12 04:25:39;;;;;;;3.22;1.52;;;;;;;;;;5030936;28;20103;-81
2022/07/12 04:28:25;;;;;;;2.50;1.48;;;;;;;;;;5029623;28;20041;-81
2022/07/12 04:31:10;;;;;;;2.38;1.33;;;;;;;;;;5030674;28;20040;-82
2022/07/12 04:33:56;;;;;;;2.03;1.42;;;;;;;;;;5016416;28;20034;-81
2022/07/12 04:36:43;;;;;;;1.85;1.33;;;;;;;;;;5030249;28;20041;-81
2022/07/12 04:39:29;;;;;;;2.20;1.25;;;;;;;;;;5019665;28;20033;-81
2022/07/12 04:42:15;;;;;;;2.38;1.27;;;;;;;;;;5033784;28;20045;-81
2022/07/12 04:45:01;;;;;;;2.55;1.60;;;;;;;;;;5021123;28;20038;-82
2022/07/12 04:47:47;;;;;;;2.25;1.45;;;;;;;;;;5020772;28;20136;-81
2022/07/12 04:50:32;;;;;;;2.35;1.52;;;;;;;;;;5021437;28;20053;-82
2022/07/12 04:53:18;;;;;;;2.30;1.40;;;;;;;;;;5033175;28;20075;-81
2022/07/12 04:56:04;;;;;;;2.50;1.63;;;;;;;;;;5019253;28;20049;-81
2022/07/12 04:58:50;;;;;;;2.05;1.20;;;;;;;;;;5034294;28;20041;-81
2022/07/12 05:01:35;;;;;;;2.30;1.50;;;;;;;;;;5033074;28;20041;-82
2022/07/12 05:04:21;;;;;;;2.25;1.45;;;;;;;;;;5033136;28;20088;-81
2022/07/12 05:07:07;;;;;;;2.22;1.50;;;;;;;;;;5034093;28;20041;-81
2022/07/12 05:09:53;;;;;;;2.58;1.55;;;;;;;;;;5032323;28;20053;-81
2022/07/12 05:12:38;;;;;;;2.40;1.80;;;;;;;;;;5032519;28;20065;-81
2022/07/12 05:15:24;;;;;;;2.22;1.33;;;;;;;;;;5033596;28;20049;-81
2022/07/12 05:18:10;;;;;;;2.53;1.45;;;;;;;;;;5020064;28;20098;-81
2022/07/12 05:20:55;;;;;;;2.63;1.75;;;;;;;;;;5019281;28;20041;-81
2022/07/12 05:23:41;;;;;;;2.50;1.65;;;;;;;;;;5033857;28;20048;-81
2022/07/12 05:26:28;;;;;;;3.00;1.75;;;;;;;;;;5033272;28;20103;-81
2022/07/12 05:29:14;;;;;;;3.08;1.58;;;;;;;;;;5032799;28;20037;-81
2022/07/12 05:32:01;;;;;;;2.40;1.50;;;;;;;;;;5032016;28;20084;-81
2022/07/12 05:34:47;;;;;;;2.50;1.52;;;;;;;;;;5032398;28;20029;-81
2022/07/12 05:37:32;;;;;;;2.20;1.73;;;;;;;;;;5018532;28;20049;-81
2022/07/12 05:40:18;;;;;;;2.50;1.80;;;;;;;;;;5018925;28;20041;-81
2022/07/12 05:43:04;;;;;;;3.10;1.60;;;;;;;;;;5019996;28;20408;-81
2022/07/12 05:45:50;;;;;;;1.77;1.33;;;;;;;;;;5031967;28;20047;-81
2022/07/12 05:48:37;;;;;;;2.70;1.80;;;;;;;;;;5032469;28;20038;-81
2022/07/12 05:54:27;;;;;;;3.38;2.25;;;;;;;;;;5022079;28;20042;-81
2022/07/12 05:57:14;;;;;;;2.90;1.73;;;;;;;;;;5032735;28;20469;-81
2022/07/12 06:00:00;;;;;;;2.63;1.60;;;;;;;;;;5018531;28;20044;-81
2022/07/12 06:02:46;;;;;;;2.65;1.65;;;;;;;;;;5018983;28;20025;-80
2022/07/12 06:05:31;;;;;;;2.97;1.48;;;;;;;;;;5018918;28;20525;-81
2022/07/12 06:08:17;;;;;;;3.00;1.58;;;;;;;;;;5030936;28;20044;-81
2022/07/12 06:11:03;;;;;;;2.72;1.80;;;;;;;;;;5032790;28;20072;-81
2022/07/12 06:13:50;;;;;;;3.78;2.00;;;;;;;;;;5019213;28;20037;-81
2022/07/12 06:16:36;;;;;;;2.58;1.60;;;;;;;;;;5031281;28;20128;-81
2022/07/12 06:19:23;;;;;;;2.35;1.77;;;;;;;;;;5018889;28;20418;-81
2022/07/12 06:22:09;;;;;;;3.20;1.88;;;;;;;;;;5031144;28;20084;-80
2022/07/12 06:24:54;;;;;;;3.75;2.28;;;;;;;;;;5032210;28;20087;-81
2022/07/12 06:27:40;;;;;;;3.35;2.38;;;;;;;;;;5032192;28;20104;-81
2022/07/12 06:30:26;;;;;;;3.35;1.90;;;;;;;;;;5031998;28;20096;-81
2022/07/12 06:33:11;;;;;;;3.35;1.80;;;;;;;;;;5031343;28;20041;-81
2022/07/12 06:35:57;;;;;;;4.20;2.85;;;;;;;;;;5018762;28;20037;-81
2022/07/12 06:38:43;;;;;;;2.72;1.85;;;;;;;;;;5017172;28;20080;-81
2022/07/12 06:41:29;;;;;;;3.58;2.20;;;;;;;;;;5018178;28;20500;-81
2022/07/12 06:44:15;;;;;;;2.60;1.77;;;;;;;;;;5031362;28;20049;-81
2022/07/12 06:47:00;;;;;;;3.70;2.13;;;;;;;;;;5018817;28;20384;-81
2022/07/12 06:49:46;;;;;;;3.38;2.30;;;;;;;;;;5017775;28;20056;-81
2022/07/12 06:52:32;;;;;;;2.63;1.80;;;;;;;;;;5031310;28;20091;-81
2022/07/12 06:55:18;;;;;;;3.00;2.25;;;;;;;;;;5017948;28;20033;-81
2022/07/12 06:58:04;;;;;;;4.78;2.42;;;;;;;;;;5017921;28;20045;-81
2022/07/12 07:00:50;;;;;;;3.13;2.08;;;;;;;;;;5029872;28;20083;-81
2022/07/12 07:03:36;;;;;;;3.60;2.70;;;;;;;;;;5018590;28;20033;-81
2022/07/12 07:06:22;;;;;;;3.35;2.60;;;;;;;;;;5031288;28;20038;-81
2022/07/12 07:09:07;;;;;;;3.83;2.13;;;;;;;;;;5030853;28;20048;-81
2022/07/12 07:11:53;;;;;;;8.40;2.45;;;;;;;;;;5030991;28;20431;-81
2022/07/12 07:14:39;;;;;;;3.10;2.13;;;;;;;;;;5031724;28;20435;-81
2022/07/12 07:17:24;;;;;;;3.28;2.15;;;;;;;;;;5031007;28;20037;-81
2022/07/12 07:20:10;;;;;;;3.75;2.42;;;;;;;;;;5030874;28;20044;-81
2022/07/12 07:22:56;;;;;;;2.92;2.05;;;;;;;;;;5017246;28;20125;-81
2022/07/12 07:25:46;;;;;;;2.40;1.80;;;;;;;;;;5031598;28;20103;-81
2022/07/12 07:28:31;;;;;;;4.20;2.25;;;;;;;;;;5016207;28;20080;-81
2022/07/12 07:31:17;;;;;;;4.53;2.20;;;;;;;;;;5030574;28;20041;-81
2022/07/12 07:34:03;;;;;;;2.42;1.85;;;;;;;;;;5016694;28;20119;-81
2022/07/12 07:36:49;;;;;;;4.22;2.00;;;;;;;;;;5016743;28;20052;-81
2022/07/12 07:39:35;;;;;;;3.10;2.05;;;;;;;;;;5015600;28;20037;-81
2022/07/12 07:42:21;;;;;;;2.42;1.92;;;;;;;;;;5031696;28;20067;-81
2022/07/12 07:45:08;;;;;;;4.00;2.35;;;;;;;;;;5031172;28;20458;-81
2022/07/12 07:47:54;;;;;;;3.33;2.20;;;;;;;;;;5029796;28;20550;-81
2022/07/12 07:50:40;;;;;;;2.72;2.03;;;;;;;;;;5029050;28;20507;-81
2022/07/12 07:53:25;;;;;;;2.17;1.77;;;;;;;;;;5016855;28;20045;-81
2022/07/12 07:56:11;;;;;;;5.93;2.28;;;;;;;;;;5030023;28;20106;-81
2022/07/12 07:58:57;;;;;;;2.35;1.70;;;;;;;;;;5016468;28;20049;-81
2022/07/12 08:01:44;;;;;;;3.55;2.20;;;;;;;;;;5030785;28;20087;-81
2022/07/12 08:04:30;;;;;;;4.78;1.73;;;;;;;;;;5029961;28;20042;-81
2022/07/12 08:07:16;;;;;;;3.25;2.00;;;;;;;;;;5016924;28;20030;-81
2022/07/12 08:10:02;;;;;;;3.65;1.85;;;;;;;;;;5030139;28;20579;-81
2022/07/12 08:12:47;;;;;;;3.88;2.05;;;;;;;;;;5033187;28;20037;-81
2022/07/12 08:15:33;;;;;;;4.10;1.50;;;;;;;;;;5034831;28;20045;-81
2022/07/12 08:18:19;;;;;;;2.40;1.95;;;;;;;;;;5034885;28;20045;-81
2022/07/12 08:21:06;;;;;;;3.55;2.03;;;;;;;;;;5034648;28;20054;-80
2022/07/12 08:23:52;;;;;;;3.47;1.95;;;;;;;;;;5033910;28;20499;-81
2022/07/12 08:26:39;;;;;;;2.90;1.95;;;;;;;;;;5034069;28;20121;-81
2022/07/12 08:29:25;;;;;;;3.42;2.25;;;;;;;;;;5021139;28;20496;-81
2022/07/12 08:32:11;;;;;;;3.38;1.90;;;;;;;;;;5020810;28;20042;-82
2022/07/12 08:34:57;;;;;;;2.45;1.60;;;;;;;;;;5033767;28;20029;-82
2022/07/12 08:37:42;;;;;;;2.03;1.40;;;;;;;;;;5021193;28;20091;-81
2022/07/12 08:40:28;;;;;;;3.63;1.85;;;;;;;;;;5033247;28;20065;-81
2022/07/12 08:43:14;;;;;;;2.92;1.92;;;;;;;;;;5034227;28;20041;-81
2022/07/12 08:46:06;;;;;;;2.65;1.60;;;;;;;;;;5033587;28;20048;-81
2022/07/12 08:48:52;;;;;;;2.50;1.85;;;;;;;;;;5020021;28;20042;-82
2022/07/12 08:51:38;;;;;;;2.65;1.73;;;;;;;;;;5033999;28;20040;-81
2022/07/12 08:54:24;;;;;;;2.72;1.70;;;;;;;;;;5034673;28;20124;-82
2022/07/12 08:57:09;;;;;;;2.60;1.40;;;;;;;;;;5034565;28;20496;-82
2022/07/12 08:59:59;;;;;;;2.47;1.60;;;;;;;;;;5019369;28;20522;-81
2022/07/12 09:02:52;;;;;;;2.83;1.90;;;;;;;;;;5019180;28;20037;-82
2022/07/12 09:05:38;;;;;;;2.25;1.50;;;;;;;;;;5033099;28;20049;-81
2022/07/12 09:08:28;;;;;;;2.85;1.98;;;;;;;;;;5032865;28;20251;-82
2022/07/12 09:11:14;;;;;;;3.22;1.58;;;;;;;;;;5018796;28;20401;-81
2022/07/12 09:14:02;;;;;;;2.28;1.33;;;;;;;;;;5019192;28;20045;-81
2022/07/12 09:17:09;;;;;;;2.15;1.38;;;;;;;;;;5032201;28;20030;-81
2022/07/12 09:19:57;;;;;;;2.15;1.50;;;;;;;;;;5034120;28;20041;-82
2022/07/12 09:22:57;;;;;;;2.55;1.63;;;;;;;;;;5020116;28;20179;-82
2022/07/12 09:25:44;;;;;;;3.28;1.60;;;;;;;;;;5019311;28;20099;-82
2022/07/12 09:28:29;;;;;;;2.67;1.58;;;;;;;;;;5019072;28;20033;-82
2022/07/12 09:31:15;;;;;;;2.35;1.55;;;;;;;;;;5018615;28;20041;-82
2022/07/12 09:37:06;;;;;;;2.00;1.30;;;;;;;;;;5022833;28;20029;-81
2022/07/12 09:39:53;;;;;;;2.63;1.50;;;;;;;;;;5019524;28;20037;-82
2022/07/12 09:42:39;;;;;;;2.47;1.60;;;;;;;;;;5034476;28;20037;-82
2022/07/12 09:45:25;;;;;;;2.67;1.75;;;;;;;;;;5032156;28;20120;-82
2022/07/12 09:48:11;;;;;;;2.03;1.45;;;;;;;;;;5019127;28;20038;-81
2022/07/12 09:50:57;;;;;;;1.75;1.05;;;;;;;;;;5018362;28;20124;-82
2022/07/12 09:53:47;;;;;;;1.73;1.10;;;;;;;;;;5033933;28;20046;-82
2022/07/12 09:56:33;;;;;;;2.28;1.33;;;;;;;;;;5019007;28;20518;-82
2022/07/12 09:59:20;;;;;;;2.72;1.33;;;;;;;;;;5033306;28;20120;-82
2022/07/12 10:02:06;;;;;;;1.52;1.00;;;;;;;;;;5017920;28;20037;-82
2022/07/12 10:04:52;;;;;;;1.90;1.23;;;;;;;;;;5018759;28;20519;-82
2022/07/12 10:07:38;;;;;;;1.65;1.05;;;;;;;;;;5019056;28;20081;-82
2022/07/12 10:10:24;;;;;;;1.92;1.25;;;;;;;;;;5018552;28;20485;-82
2022/07/12 10:13:10;;;;;;;2.17;1.30;;;;;;;;;;5018990;28;20041;-83
2022/07/12 10:16:00;;;;;;;1.50;0.85;;;;;;;;;;5018059;28;20060;-82
2022/07/12 10:18:46;;;;;;;1.45;1.00;;;;;;;;;;5019220;28;20041;-82
2022/07/12 10:21:32;;;;;;;2.05;1.00;;;;;;;;;;5032478;28;20033;-82
2022/07/12 10:24:33;;;;;;;1.80;1.00;;;;;;;;;;5031408;28;20038;-82
2022/07/12 10:27:20;;;;;;;1.80;0.90;;;;;;;;;;5033356;28;20044;-80
2022/07/12 10:30:16;;;;;;;1.50;0.88;;;;;;;;;;5032864;28;20492;-83
2022/07/12 10:33:01;;;;;;;1.45;0.90;;;;;;;;;;5018525;28;20045;-82
2022/07/12 10:36:01;;;;;;;1.42;0.82;;;;;;;;;;5030383;28;20495;-83
2022/07/12 10:38:46;;;;;;;1.60;1.00;;;;;;;;;;5030047;28;20397;-82
2022/07/12 10:41:33;;;;;;;1.63;1.17;;;;;;;;;;5031335;28;20405;-83
2022/07/12 10:44:33;;;;;;;1.67;0.80;;;;;;;;;;5032507;28;20037;-82
2022/07/12 10:47:19;;;;;;;1.30;0.80;;;;;;;;;;5016448;28;20045;-82
2022/07/12 10:50:05;;;;;;;3.00;1.10;;;;;;;;;;5030578;28;20046;-82
2022/07/12 10:53:07;;;;;;;1.90;1.27;;;;;;;;;;5016289;28;20232;-82
2022/07/12 10:56:14;;;;;;;1.60;1.00;;;;;;;;;;5019271;28;20088;-82
2022/07/12 10:59:00;;;;;;;1.77;0.93;;;;;;;;;;5032342;28;20611;-82
2022/07/12 11:01:46;;;;;;;1.30;0.80;;;;;;;;;;5017355;28;20052;-82
2022/07/12 11:04:33;;;;;;;1.63;0.90;;;;;;;;;;5017991;28;20128;-82
2022/07/12 11:07:19;;;;;;;1.48;0.75;;;;;;;;;;5030561;28;20038;-83
2022/07/12 11:10:05;;;;;;;1.80;0.98;;;;;;;;;;5031160;28;20045;-82
2022/07/12 11:12:50;;;;;;;1.45;0.90;;;;;;;;;;5016885;28;20041;-82
2022/07/12 11:15:37;;;;;;;2.03;1.00;;;;;;;;;;5030814;28;20045;-82
2022/07/12 11:18:33;;;;;;;1.88;1.05;;;;;;;;;;5030801;28;20037;-82
2022/07/12 11:21:19;;;;;;;2.40;0.98;;;;;;;;;;5018010;28;20045;-83
2022/07/12 11:24:18;;;;;;;1.08;0.70;;;;;;;;;;5016988;28;20128;-82
2022/07/12 11:27:04;;;;;;;1.65;0.93;;;;;;;;;;5017473;28;20478;-82
2022/07/12 11:30:00;;;;;;;1.58;0.82;;;;;;;;;;5016978;28;20037;-83
2022/07/12 11:32:47;;;;;;;1.48;0.80;;;;;;;;;;5018033;28;20033;-82
2022/07/12 11:35:33;;;;;;;1.50;0.70;;;;;;;;;;5031982;28;20060;-83
2022/07/12 11:38:25;;;;;;;2.22;0.90;;;;;;;;;;5017309;28;20041;-83
2022/07/12 11:41:11;;;;;;;;;;;;;;;;;;5017208;28;20087;-83
2022/07/12 11:43:57;;;;;;;1.25;0.85;;;;;;;;;;5043592;28;19916;-83
2022/07/12 11:46:49;;;;;;;2.17;1.05;;;;;;;;;;5031074;28;20037;-82
2022/07/12 11:49:35;;;;;;;1.50;0.75;;;;;;;;;;5020222;28;20518;-82
2022/07/12 11:52:23;;;;;;;2.50;1.00;;;;;;;;;;5019758;28;20140;-83
2022/07/12 11:55:08;;;;;;;1.73;1.02;;;;;;;;;;5020104;28;20033;-83
2022/07/12 11:58:05;;;;;;;1.65;0.93;;;;;;;;;;5021199;28;20044;-83
2022/07/12 12:00:51;;;;;;;1.42;0.80;;;;;;;;;;5019616;28;20500;-83
2022/07/12 12:03:44;;;;;;;1.40;0.85;;;;;;;;;;5021612;28;20033;-83
2022/07/12 12:06:31;;;;;;;2.03;1.10;;;;;;;;;;5021300;28;20120;-83
2022/07/12 12:09:16;;;;;;;1.48;0.80;;;;;;;;;;5020451;28;20045;-83
2022/07/12 12:12:02;;;;;;;1.30;0.77;;;;;;;;;;5033820;28;20033;-83
2022/07/12 12:14:48;;;;;;;1.10;0.63;;;;;;;;;;5019933;28;20438;-83
2022/07/12 12:17:34;;;;;;;1.50;0.70;;;;;;;;;;5033773;28;20093;-82
2022/07/12 12:20:27;;;;;;;1.77;1.15;;;;;;;;;;5020907;28;20049;-83
2022/07/12 12:23:17;;;;;;;1.55;0.93;;;;;;;;;;5035159;28;20524;-83
2022/07/12 12:26:17;;;;;;;1.90;1.02;;;;;;;;;;5021161;28;20041;-84
2022/07/12 12:29:03;;;;;;;2.85;0.75;;;;;;;;;;5021112;28;20112;-83
2022/07/12 12:31:58;;;;;;;1.73;1.02;;;;;;;;;;5021116;28;20042;-83
2022/07/12 12:35:08;;;;;;;1.42;0.90;;;;;;;;;;5021711;28;20432;-83
2022/07/12 12:38:14;;;;;;;1.40;0.98;;;;;;;;;;5034800;28;20113;-83
2022/07/12 12:40:59;;;;;;;1.95;1.10;;;;;;;;;;5020036;28;20077;-83
2022/07/12 12:43:45;;;;;;;1.33;0.80;;;;;;;;;;5034776;28;20041;-83
2022/07/12 12:46:55;;;;;;;1.50;0.90;;;;;;;;;;5019959;28;20076;-83
2022/07/12 12:49:44;;;;;;;1.48;0.93;;;;;;;;;;5035091;28;20541;-83
2022/07/12 12:52:30;;;;;;;1.10;0.70;;;;;;;;;;5034152;28;20042;-83
2022/07/12 12:55:15;;;;;;;2.00;0.88;;;;;;;;;;5034374;28;20420;-83
2022/07/12 12:58:01;;;;;;;1.25;0.70;;;;;;;;;;5019160;28;20033;-84
2022/07/12 13:00:48;;;;;;;1.70;0.75;;;;;;;;;;5020328;28;20042;-83
2022/07/12 13:03:34;;;;;;;1.50;0.73;;;;;;;;;;5018775;28;20049;-83
2022/07/12 13:06:21;;;;;;;1.35;0.70;;;;;;;;;;5033751;28;20389;-83
2022/07/12 13:09:07;;;;;;;1.55;0.60;;;;;;;;;;5033773;28;20057;-83
2022/07/12 13:11:53;;;;;;;1.50;0.80;;;;;;;;;;5033262;28;20048;-83
2022/07/12 13:14:39;;;;;;;2.10;1.08;;;;;;;;;;5032998;28;20521;-84
2022/07/12 13:17:24;;;;;;;2.20;0.93;;;;;;;;;;5032914;28;20140;-83
2022/07/12 13:20:12;;;;;;;2.15;0.90;;;;;;;;;;5019100;28;20041;-83
2022/07/12 13:22:58;;;;;;;1.35;0.63;;;;;;;;;;5020106;28;20439;-83
2022/07/12 13:25:44;;;;;;;1.73;0.80;;;;;;;;;;5020219;28;20056;-84
2022/07/12 13:28:31;;;;;;;1.85;0.90;;;;;;;;;;5033470;28;20044;-83
2022/07/12 13:31:17;;;;;;;1.48;0.70;;;;;;;;;;5033810;28;20077;-83
2022/07/12 13:34:03;;;;;;;1.00;0.70;;;;;;;;;;5019473;28;20033;-84
2022/07/12 13:36:48;;;;;;;1.70;0.85;;;;;;;;;;5033240;28;20069;-83
2022/07/12 13:42:48;;;;;;;1.67;0.80;;;;;;;;;;5021982;28;20038;-84
2022/07/12 13:45:34;;;;;;;1.20;0.50;;;;;;;;;;5031202;28;20112;-83
2022/07/12 13:48:19;;;;;;;1.75;1.00;;;;;;;;;;5032291;28;20041;-83
2022/07/12 13:51:05;;;;;;;1.08;0.52;;;;;;;;;;5031981;28;20494;-83
2022/07/12 13:53:51;;;;;;;2.05;0.73;;;;;;;;;;5018486;28;20104;-83
2022/07/12 13:56:37;;;;;;;1.98;0.75;;;;;;;;;;5018026;28;20087;-84
2022/07/12 13:59:22;;;;;;;2.80;0.98;;;;;;;;;;5032791;28;20037;-83
2022/07/12 14:02:08;;;;;;;1.48;0.77;;;;;;;;;;5032573;28;20074;-83
2022/07/12 14:04:54;;;;;;;1.02;0.70;;;;;;;;;;5018859;28;20041;-83
2022/07/12 14:07:40;;;;;;;1.70;0.73;;;;;;;;;;5032743;28;20036;-83
2022/07/12 14:10:26;;;;;;;1.13;0.60;;;;;;;;;;5019527;28;20051;-83
2022/07/12 14:13:12;;;;;;;1.38;0.75;;;;;;;;;;5018321;28;20127;-83
2022/07/12 14:15:59;;;;;;;1.40;0.80;;;;;;;;;;5031938;28;20037;-83
2022/07/12 14:18:44;;;;;;;1.17;0.57;;;;;;;;;;5031411;28;20037;-83
2022/07/12 14:21:30;;;;;;;1.10;0.70;;;;;;;;;;5033015;28;20409;-84
2022/07/12 14:24:16;;;;;;;1.17;0.73;;;;;;;;;;5031321;28;20434;-83
2022/07/12 14:27:02;;;;;;;1.10;0.60;;;;;;;;;;5032232;28;20396;-83
2022/07/12 14:29:48;;;;;;;2.05;0.80;;;;;;;;;;5031748;28;20381;-83
2022/07/12 14:32:34;;;;;;;1.08;0.68;;;;;;;;;;5017630;28;20092;-83
2022/07/12 14:35:20;;;;;;;2.97;1.33;;;;;;;;;;5016443;28;20033;-83
2022/07/12 14:38:05;;;;;;;1.27;0.50;;;;;;;;;;5032735;28;20044;-83
2022/07/12 14:40:52;;;;;;;1.98;0.90;;;;;;;;;;5031883;28;20042;-83
2022/07/12 14:43:38;;;;;;;1.33;0.77;;;;;;;;;;5018667;28;20030;-83
2022/07/12 14:46:23;;;;;;;1.55;0.77;;;;;;;;;;5031090;28;20037;-83
2022/07/12 14:49:09;;;;;;;1.67;1.00;;;;;;;;;;5030323;28;20052;-83
2022/07/12 14:51:55;;;;;;;1.45;0.77;;;;;;;;;;5031882;28;20103;-82
2022/07/12 14:54:41;;;;;;;1.38;0.82;;;;;;;;;;5018210;28;20045;-83
2022/07/12 14:57:27;;;;;;;0.60;0.47;;;;;;;;;;5031303;28;20060;-82
2022/07/12 15:00:13;;;;;;;1.50;0.77;;;;;;;;;;5032402;28;20045;-83
2022/07/12 15:02:59;;;;;;;1.30;0.85;;;;;;;;;;5017629;28;20451;-83
2022/07/12 15:05:46;;;;;;;0.90;0.60;;;;;;;;;;5031098;28;20045;-82
2022/07/12 15:08:32;;;;;;;0.90;0.60;;;;;;;;;;5030564;28;20094;-83
2022/07/12 15:11:18;;;;;;;2.00;0.70;;;;;;;;;;5031451;28;20064;-82
2022/07/12 15:14:03;;;;;;;1.50;0.70;;;;;;;;;;5032540;28;20044;-81
2022/07/12 15:16:49;;;;;;;1.75;0.77;;;;;;;;;;5030799;28;20052;-82
2022/07/12 15:19:35;;;;;;;1.17;0.50;;;;;;;;;;5029401;28;20045;-82
2022/07/12 15:22:20;;;;;;;1.25;0.50;;;;;;;;;;5010075;28;20045;-82
2022/07/12 15:25:06;;;;;;;1.52;0.63;;;;;;;;;;5016137;28;20431;-84
2022/07/12 15:27:52;;;;;;;1.70;0.68;;;;;;;;;;5049779;28;20092;-83
2022/07/12 15:30:38;;;;;;;1.30;0.50;;;;;;;;;;5050253;28;20044;-83
2022/07/12 15:33:24;;;;;;;0.68;0.47;;;;;;;;;;5030936;28;20068;-83
2022/07/12 15:36:10;;;;;;;1.58;0.80;;;;;;;;;;5029917;28;20040;-83
2022/07/12 15:38:56;;;;;;;0.90;0.55;;;;;;;;;;5018817;28;20042;-83
2022/07/12 15:41:42;;;;;;;2.17;0.80;;;;;;;;;;5018817;28;20033;-83
2022/07/12 15:44:27;;;;;;;1.35;0.60;;;;;;;;;;5012177;28;20041;-83
2022/07/12 15:47:16;;;;;;;2.10;1.40;;;;;;;;;;5010953;28;20042;-84
2022/07/12 15:50:02;;;;;;;2.80;1.30;;;;;;;;;;5011069;28;20038;-81
2022/07/12 15:55:54;;;;;;;4.35;3.95;;;;;;;;;;5019453;28;20463;-81
2022/07/12 15:58:42;;;;;;;3.05;2.75;;;;;;;;;;5017106;28;20060;-82
2022/07/12 16:01:28;;;;;;;3.25;2.95;;;;;;;;;;5027769;28;20034;-81
2022/07/12 16:04:13;;;;;;;18.67;16.50;;;;;;;;;;5027712;28;20042;-81
2022/07/12 16:07:01;;;;;;;29.20;24.52;;;;;;;;;;5010958;28;20057;-81
2022/07/12 16:09:47;;;;;;;27.45;23.13;;;;;;;;;;5003094;28;20478;-81
2022/07/12 16:12:33;;;;;;;24.42;20.73;;;;;;;;;;5025579;28;20037;-82
2022/07/12 16:15:19;;;;;;;36.40;31.88;;;;;;;;;;5043907;28;20045;-82
2022/07/12 16:18:05;;;;;;;26.55;22.25;;;;;;;;;;5029522;28;20067;-82
2022/07/12 16:20:51;;;;;;;25.13;21.13;;;;;;;;;;5012828;28;20038;-81
2022/07/12 16:23:37;;;;;;;24.98;22.33;;;;;;;;;;5029967;28;20522;-81
2022/07/12 16:26:23;;;;;;;24.85;20.75;;;;;;;;;;5045103;28;20033;-81
2022/07/12 16:29:08;;;;;;;21.35;18.70;;;;;;;;;;5043382;28;20423;-81
2022/07/12 16:31:54;;;;;;;23.67;20.20;;;;;;;;;;5015578;28;20099;-81
2022/07/12 16:34:40;;;;;;;22.45;20.05;;;;;;;;;;5046542;28;20116;-81
2022/07/12 16:37:26;;;;;;;21.50;19.20;;;;;;;;;;5034344;28;20419;-81
2022/07/12 16:40:13;;;;;;;22.55;18.65;;;;;;;;;;5032161;28;20060;-81
2022/07/12 16:42:59;;;;;;;20.42;18.23;;;;;;;;;;5047961;28;20052;-81
2022/07/12 16:45:45;;;;;;;20.77;18.15;;;;;;;;;;5048460;28;20050;-81
2022/07/12 16:48:31;;;;;;;21.85;19.55;;;;;;;;;;5032608;28;20033;-81
2022/07/12 16:51:23;;;;;;;18.73;16.42;;;;;;;;;;5047764;28;20056;-81
2022/07/12 16:54:09;;;;;;;20.73;17.67;;;;;;;;;;5047965;28;20069;-80